sensor_id;sensor_type;location;lat;lon;timestamp;temperature;humidity
46730;DHT22;32476;50.002;11.854;2024-02-15T00:02:25;7.30;99.90
46730;DHT22;32476;50.002;11.854;2024-02-15T00:04:51;7.30;99.90
46730;DHT22;32476;50.002;11.854;2024-02-15T00:07:18;7.30;99.90
46730;DHT22;32476;50.002;11.854;2024-02-15T00:09:48;7.30;99.90
46730;DHT22;32476;50.002;11.854;2024-02-15T00:12:14;7.20;99.90
46730;DHT22;32476;50.002;11.854;2024-02-15T00:14:41;7.30;99.90
46730;DHT22;32476;50.002;11.854;2024-02-15T00:17:08;7.20;99.90
46730;DHT22;32476;50.002;11.854;2024-02-15T00:19:34;7.30;99.90
46730;DHT22;32476;50.002;11.854;2024-02-15T00:22:02;7.30;99.90
46730;DHT22;32476;50.002;11.854;2024-02-15T00:24:27;7.30;99.90
46730;DHT22;32476;50.002;11.854;2024-02-15T00:26:54;7.30;99.90
46730;DHT22;32476;50.002;11.854;2024-02-15T00:29:21;7.30;99.90
46730;DHT22;32476;50.002;11.854;2024-02-15T00:31:47;7.40;99.90
46730;DHT22;32476;50.002;11.854;2024-02-15T00:34:14;7.30;99.90
46730;DHT22;32476;50.002;11.854;2024-02-15T00:36:43;7.40;99.90
46730;DHT22;32476;50.002;11.854;2024-02-15T00:39:10;7.40;99.90
46730;DHT22;32476;50.002;11.854;2024-02-15T00:41:37;7.40;99.90
46730;DHT22;32476;50.002;11.854;2024-02-15T00:44:09;7.40;99.90
46730;DHT22;32476;50.002;11.854;2024-02-15T00:46:38;7.40;99.90
46730;DHT22;32476;50.002;11.854;2024-02-15T00:49:04;7.40;99.90
46730;DHT22;32476;50.002;11.854;2024-02-15T00:51:35;7.40;99.90
46730;DHT22;32476;50.002;11.854;2024-02-15T00:54:02;7.40;99.90
46730;DHT22;32476;50.002;11.854;2024-02-15T00:56:28;7.40;99.90
46730;DHT22;32476;50.002;11.854;2024-02-15T00:58:59;7.40;99.90
46730;DHT22;32476;50.002;11.854;2024-02-15T01:01:29;7.40;99.90
46730;DHT22;32476;50.002;11.854;2024-02-15T01:03:55;7.40;99.90
46730;DHT22;32476;50.002;11.854;2024-02-15T01:06:22;7.50;99.90
46730;DHT22;32476;50.002;11.854;2024-02-15T01:08:48;7.50;99.90
46730;DHT22;32476;50.002;11.854;2024-02-15T01:11:15;7.50;99.90
46730;DHT22;32476;50.002;11.854;2024-02-15T01:13:43;7.40;99.90
46730;DHT22;32476;50.002;11.854;2024-02-15T01:16:09;7.40;99.90
46730;DHT22;32476;50.002;11.854;2024-02-15T01:18:36;7.50;99.90
46730;DHT22;32476;50.002;11.854;2024-02-15T01:21:04;7.40;99.90
46730;DHT22;32476;50.002;11.854;2024-02-15T01:23:30;7.50;99.90
46730;DHT22;32476;50.002;11.854;2024-02-15T01:25:56;7.50;99.90
46730;DHT22;32476;50.002;11.854;2024-02-15T01:28:24;7.50;99.90
46730;DHT22;32476;50.002;11.854;2024-02-15T01:30:50;7.50;99.90
46730;DHT22;32476;50.002;11.854;2024-02-15T01:33:16;7.50;99.90
46730;DHT22;32476;50.002;11.854;2024-02-15T01:35:45;7.50;99.90
46730;DHT22;32476;50.002;11.854;2024-02-15T01:38:10;7.50;99.90
46730;DHT22;32476;50.002;11.854;2024-02-15T01:40:36;7.50;99.90
46730;DHT22;32476;50.002;11.854;2024-02-15T01:43:04;7.50;99.90
46730;DHT22;32476;50.002;11.854;2024-02-15T01:45:30;7.50;99.90
46730;DHT22;32476;50.002;11.854;2024-02-15T01:47:56;7.50;99.90
46730;DHT22;32476;50.002;11.854;2024-02-15T01:50:25;7.50;99.90
46730;DHT22;32476;50.002;11.854;2024-02-15T01:52:52;7.50;99.90
46730;DHT22;32476;50.002;11.854;2024-02-15T01:55:21;7.50;99.90
46730;DHT22;32476;50.002;11.854;2024-02-15T01:57:48;7.50;99.90
46730;DHT22;32476;50.002;11.854;2024-02-15T02:00:19;7.50;99.90
46730;DHT22;32476;50.002;11.854;2024-02-15T02:02:45;7.50;99.90
46730;DHT22;32476;50.002;11.854;2024-02-15T02:05:14;7.50;99.90
46730;DHT22;32476;50.002;11.854;2024-02-15T02:07:40;7.50;99.90
46730;DHT22;32476;50.002;11.854;2024-02-15T02:10:07;7.50;99.90
46730;DHT22;32476;50.002;11.854;2024-02-15T02:12:39;7.50;99.90
46730;DHT22;32476;50.002;11.854;2024-02-15T02:15:09;7.50;99.90
46730;DHT22;32476;50.002;11.854;2024-02-15T02:17:38;7.50;99.90
46730;DHT22;32476;50.002;11.854;2024-02-15T02:20:06;7.50;99.90
46730;DHT22;32476;50.002;11.854;2024-02-15T02:22:36;7.50;99.90
46730;DHT22;32476;50.002;11.854;2024-02-15T02:25:07;7.50;99.90
46730;DHT22;32476;50.002;11.854;2024-02-15T02:27:36;7.50;99.90
46730;DHT22;32476;50.002;11.854;2024-02-15T02:30:13;7.50;99.90
46730;DHT22;32476;50.002;11.854;2024-02-15T02:32:46;7.50;99.90
46730;DHT22;32476;50.002;11.854;2024-02-15T02:35:12;7.50;99.90
46730;DHT22;32476;50.002;11.854;2024-02-15T02:37:39;7.50;99.90
46730;DHT22;32476;50.002;11.854;2024-02-15T02:40:07;7.50;99.90
46730;DHT22;32476;50.002;11.854;2024-02-15T02:42:53;7.50;99.90
46730;DHT22;32476;50.002;11.854;2024-02-15T02:45:23;7.50;99.90
46730;DHT22;32476;50.002;11.854;2024-02-15T02:47:49;7.50;99.90
46730;DHT22;32476;50.002;11.854;2024-02-15T02:50:15;7.50;99.90
46730;DHT22;32476;50.002;11.854;2024-02-15T02:52:44;7.50;99.90
46730;DHT22;32476;50.002;11.854;2024-02-15T02:55:10;7.50;99.90
46730;DHT22;32476;50.002;11.854;2024-02-15T02:57:37;7.50;99.90
46730;DHT22;32476;50.002;11.854;2024-02-15T03:00:06;7.50;99.90
46730;DHT22;32476;50.002;11.854;2024-02-15T03:02:37;7.60;99.90
46730;DHT22;32476;50.002;11.854;2024-02-15T03:05:04;7.60;99.90
46730;DHT22;32476;50.002;11.854;2024-02-15T03:07:35;7.60;99.90
46730;DHT22;32476;50.002;11.854;2024-02-15T03:10:02;7.60;99.90
46730;DHT22;32476;50.002;11.854;2024-02-15T03:12:38;7.60;99.90
46730;DHT22;32476;50.002;11.854;2024-02-15T03:15:05;7.60;99.90
46730;DHT22;32476;50.002;11.854;2024-02-15T03:17:43;7.60;99.90
46730;DHT22;32476;50.002;11.854;2024-02-15T03:20:11;7.60;99.90
46730;DHT22;32476;50.002;11.854;2024-02-15T03:22:53;7.60;99.90
46730;DHT22;32476;50.002;11.854;2024-02-15T03:25:20;7.60;99.90
46730;DHT22;32476;50.002;11.854;2024-02-15T03:27:54;7.60;99.90
46730;DHT22;32476;50.002;11.854;2024-02-15T03:30:22;7.50;99.90
46730;DHT22;32476;50.002;11.854;2024-02-15T03:32:55;7.60;99.90
46730;DHT22;32476;50.002;11.854;2024-02-15T03:35:22;7.50;99.90
46730;DHT22;32476;50.002;11.854;2024-02-15T03:37:52;7.60;99.90
46730;DHT22;32476;50.002;11.854;2024-02-15T03:40:19;7.60;99.90
46730;DHT22;32476;50.002;11.854;2024-02-15T03:42:46;7.50;99.90
46730;DHT22;32476;50.002;11.854;2024-02-15T03:45:14;7.50;99.90
46730;DHT22;32476;50.002;11.854;2024-02-15T03:47:40;7.60;99.90
46730;DHT22;32476;50.002;11.854;2024-02-15T03:50:07;7.60;99.90
46730;DHT22;32476;50.002;11.854;2024-02-15T03:52:37;7.60;99.90
46730;DHT22;32476;50.002;11.854;2024-02-15T03:55:04;7.60;99.90
46730;DHT22;32476;50.002;11.854;2024-02-15T03:57:33;7.60;99.90
46730;DHT22;32476;50.002;11.854;2024-02-15T04:00:01;7.60;99.90
46730;DHT22;32476;50.002;11.854;2024-02-15T04:02:27;7.60;99.90
46730;DHT22;32476;50.002;11.854;2024-02-15T04:04:54;7.60;99.90
46730;DHT22;32476;50.002;11.854;2024-02-15T04:07:22;7.60;99.90
46730;DHT22;32476;50.002;11.854;2024-02-15T04:09:51;7.60;99.90
46730;DHT22;32476;50.002;11.854;2024-02-15T04:12:17;7.60;99.90
46730;DHT22;32476;50.002;11.854;2024-02-15T04:14:45;7.60;99.90
46730;DHT22;32476;50.002;11.854;2024-02-15T04:17:11;7.60;99.90
46730;DHT22;32476;50.002;11.854;2024-02-15T04:19:48;7.60;99.90
46730;DHT22;32476;50.002;11.854;2024-02-15T04:22:18;7.60;99.90
46730;DHT22;32476;50.002;11.854;2024-02-15T04:24:44;7.60;99.90
46730;DHT22;32476;50.002;11.854;2024-02-15T04:27:12;7.60;99.90
46730;DHT22;32476;50.002;11.854;2024-02-15T04:29:41;7.60;99.90
46730;DHT22;32476;50.002;11.854;2024-02-15T04:32:10;7.60;99.90
46730;DHT22;32476;50.002;11.854;2024-02-15T04:34:39;7.60;99.90
46730;DHT22;32476;50.002;11.854;2024-02-15T04:37:05;7.60;99.90
46730;DHT22;32476;50.002;11.854;2024-02-15T04:39:35;7.60;99.90
46730;DHT22;32476;50.002;11.854;2024-02-15T04:42:03;7.60;99.90
46730;DHT22;32476;50.002;11.854;2024-02-15T04:44:33;7.60;99.90
46730;DHT22;32476;50.002;11.854;2024-02-15T04:47:01;7.60;99.90
46730;DHT22;32476;50.002;11.854;2024-02-15T04:49:34;7.60;99.90
46730;DHT22;32476;50.002;11.854;2024-02-15T04:52:04;7.60;99.90
46730;DHT22;32476;50.002;11.854;2024-02-15T04:54:32;7.60;99.90
46730;DHT22;32476;50.002;11.854;2024-02-15T04:56:59;7.60;99.90
46730;DHT22;32476;50.002;11.854;2024-02-15T04:59:26;7.60;99.90
46730;DHT22;32476;50.002;11.854;2024-02-15T05:01:57;7.60;99.90
46730;DHT22;32476;50.002;11.854;2024-02-15T05:04:23;7.60;99.90
46730;DHT22;32476;50.002;11.854;2024-02-15T05:06:50;7.60;99.90
46730;DHT22;32476;50.002;11.854;2024-02-15T05:09:18;7.60;99.90
46730;DHT22;32476;50.002;11.854;2024-02-15T05:11:44;7.60;99.90
46730;DHT22;32476;50.002;11.854;2024-02-15T05:14:16;7.60;99.90
46730;DHT22;32476;50.002;11.854;2024-02-15T05:16:48;7.60;99.90
46730;DHT22;32476;50.002;11.854;2024-02-15T05:19:17;7.60;99.90
46730;DHT22;32476;50.002;11.854;2024-02-15T05:21:44;7.60;99.90
46730;DHT22;32476;50.002;11.854;2024-02-15T05:24:13;7.60;99.90
46730;DHT22;32476;50.002;11.854;2024-02-15T05:26:41;7.60;99.90
46730;DHT22;32476;50.002;11.854;2024-02-15T05:29:16;7.60;99.90
46730;DHT22;32476;50.002;11.854;2024-02-15T05:31:42;7.60;99.90
46730;DHT22;32476;50.002;11.854;2024-02-15T05:34:10;7.60;99.90
46730;DHT22;32476;50.002;11.854;2024-02-15T05:36:39;7.60;99.90
46730;DHT22;32476;50.002;11.854;2024-02-15T05:39:05;7.60;99.90
46730;DHT22;32476;50.002;11.854;2024-02-15T05:41:31;7.60;99.90
46730;DHT22;32476;50.002;11.854;2024-02-15T05:44:02;7.60;99.90
46730;DHT22;32476;50.002;11.854;2024-02-15T05:46:32;7.60;99.90
46730;DHT22;32476;50.002;11.854;2024-02-15T05:49:01;7.60;99.90
46730;DHT22;32476;50.002;11.854;2024-02-15T05:51:27;7.60;99.90
46730;DHT22;32476;50.002;11.854;2024-02-15T05:53:53;7.60;99.90
46730;DHT22;32476;50.002;11.854;2024-02-15T05:56:25;7.60;99.90
46730;DHT22;32476;50.002;11.854;2024-02-15T05:58:54;7.60;99.90
46730;DHT22;32476;50.002;11.854;2024-02-15T06:01:20;7.60;99.90
46730;DHT22;32476;50.002;11.854;2024-02-15T06:03:48;7.60;99.90
46730;DHT22;32476;50.002;11.854;2024-02-15T06:06:14;7.60;99.90
46730;DHT22;32476;50.002;11.854;2024-02-15T06:08:46;7.60;99.90
46730;DHT22;32476;50.002;11.854;2024-02-15T06:11:18;7.60;99.90
46730;DHT22;32476;50.002;11.854;2024-02-15T06:13:46;7.60;99.90
46730;DHT22;32476;50.002;11.854;2024-02-15T06:16:12;7.60;99.90
46730;DHT22;32476;50.002;11.854;2024-02-15T06:18:39;7.60;99.90
46730;DHT22;32476;50.002;11.854;2024-02-15T06:21:06;7.60;99.90
46730;DHT22;32476;50.002;11.854;2024-02-15T06:23:32;7.60;99.90
46730;DHT22;32476;50.002;11.854;2024-02-15T06:26:00;7.60;99.90
46730;DHT22;32476;50.002;11.854;2024-02-15T06:28:28;7.60;99.90
46730;DHT22;32476;50.002;11.854;2024-02-15T06:31:15;7.60;99.90
46730;DHT22;32476;50.002;11.854;2024-02-15T06:33:59;7.60;99.90
46730;DHT22;32476;50.002;11.854;2024-02-15T06:36:55;7.60;99.90
46730;DHT22;32476;50.002;11.854;2024-02-15T06:39:42;7.60;99.90
46730;DHT22;32476;50.002;11.854;2024-02-15T06:42:11;7.60;99.90
46730;DHT22;32476;50.002;11.854;2024-02-15T06:44:43;7.60;99.90
46730;DHT22;32476;50.002;11.854;2024-02-15T06:47:14;7.60;99.90
46730;DHT22;32476;50.002;11.854;2024-02-15T06:49:45;7.70;99.90
46730;DHT22;32476;50.002;11.854;2024-02-15T06:52:13;7.70;99.90
46730;DHT22;32476;50.002;11.854;2024-02-15T06:54:39;7.70;99.90
46730;DHT22;32476;50.002;11.854;2024-02-15T06:57:05;7.70;99.90
46730;DHT22;32476;50.002;11.854;2024-02-15T06:59:33;7.70;99.90
46730;DHT22;32476;50.002;11.854;2024-02-15T07:02:01;7.70;99.90
46730;DHT22;32476;50.002;11.854;2024-02-15T07:04:27;7.70;99.90
46730;DHT22;32476;50.002;11.854;2024-02-15T07:06:55;7.70;99.90
46730;DHT22;32476;50.002;11.854;2024-02-15T07:09:21;7.70;99.90
46730;DHT22;32476;50.002;11.854;2024-02-15T07:11:53;7.70;99.90
46730;DHT22;32476;50.002;11.854;2024-02-15T07:14:20;7.70;99.90
46730;DHT22;32476;50.002;11.854;2024-02-15T07:16:49;7.70;99.90
46730;DHT22;32476;50.002;11.854;2024-02-15T07:19:16;7.70;99.90
46730;DHT22;32476;50.002;11.854;2024-02-15T07:21:44;7.70;99.90
46730;DHT22;32476;50.002;11.854;2024-02-15T07:24:12;7.60;99.90
46730;DHT22;32476;50.002;11.854;2024-02-15T07:26:39;7.60;99.90
46730;DHT22;32476;50.002;11.854;2024-02-15T07:29:06;7.70;99.90
46730;DHT22;32476;50.002;11.854;2024-02-15T07:31:33;7.70;99.90
46730;DHT22;32476;50.002;11.854;2024-02-15T07:34:00;7.70;99.90
46730;DHT22;32476;50.002;11.854;2024-02-15T07:36:27;7.70;99.90
46730;DHT22;32476;50.002;11.854;2024-02-15T07:38:53;7.70;99.90
46730;DHT22;32476;50.002;11.854;2024-02-15T07:41:23;7.70;99.90
46730;DHT22;32476;50.002;11.854;2024-02-15T07:43:51;7.70;99.90
46730;DHT22;32476;50.002;11.854;2024-02-15T07:46:21;7.70;99.90
46730;DHT22;32476;50.002;11.854;2024-02-15T07:48:48;7.70;99.90
46730;DHT22;32476;50.002;11.854;2024-02-15T07:51:16;7.70;99.90
46730;DHT22;32476;50.002;11.854;2024-02-15T07:53:43;7.70;99.90
46730;DHT22;32476;50.002;11.854;2024-02-15T07:56:10;7.70;99.90
46730;DHT22;32476;50.002;11.854;2024-02-15T07:58:39;7.70;99.90
46730;DHT22;32476;50.002;11.854;2024-02-15T08:01:16;7.70;99.90
46730;DHT22;32476;50.002;11.854;2024-02-15T08:03:44;7.70;99.90
46730;DHT22;32476;50.002;11.854;2024-02-15T08:06:15;7.70;99.90
46730;DHT22;32476;50.002;11.854;2024-02-15T08:08:43;7.70;99.90
46730;DHT22;32476;50.002;11.854;2024-02-15T08:11:14;7.70;99.90
46730;DHT22;32476;50.002;11.854;2024-02-15T08:16:18;7.80;99.90
46730;DHT22;32476;50.002;11.854;2024-02-15T08:18:45;7.70;99.90
46730;DHT22;32476;50.002;11.854;2024-02-15T08:21:12;7.80;99.90
46730;DHT22;32476;50.002;11.854;2024-02-15T08:23:40;7.70;99.90
46730;DHT22;32476;50.002;11.854;2024-02-15T08:26:06;7.70;99.90
46730;DHT22;32476;50.002;11.854;2024-02-15T08:28:32;7.70;99.90
46730;DHT22;32476;50.002;11.854;2024-02-15T08:30:59;7.80;99.90
46730;DHT22;32476;50.002;11.854;2024-02-15T08:33:25;7.80;99.90
46730;DHT22;32476;50.002;11.854;2024-02-15T08:35:54;7.80;99.90
46730;DHT22;32476;50.002;11.854;2024-02-15T08:38:22;7.80;99.90
46730;DHT22;32476;50.002;11.854;2024-02-15T08:40:48;7.80;99.90
46730;DHT22;32476;50.002;11.854;2024-02-15T08:43:15;7.80;99.90
46730;DHT22;32476;50.002;11.854;2024-02-15T08:45:43;7.80;99.90
46730;DHT22;32476;50.002;11.854;2024-02-15T08:48:10;7.90;99.90
46730;DHT22;32476;50.002;11.854;2024-02-15T08:50:36;7.90;99.90
46730;DHT22;32476;50.002;11.854;2024-02-15T08:53:03;7.90;99.90
46730;DHT22;32476;50.002;11.854;2024-02-15T08:55:32;7.90;99.90
46730;DHT22;32476;50.002;11.854;2024-02-15T08:57:58;7.90;99.90
46730;DHT22;32476;50.002;11.854;2024-02-15T09:00:26;8.00;99.90
46730;DHT22;32476;50.002;11.854;2024-02-15T09:02:52;8.10;99.90
46730;DHT22;32476;50.002;11.854;2024-02-15T09:05:19;8.20;99.90
46730;DHT22;32476;50.002;11.854;2024-02-15T09:07:49;8.30;99.90
46730;DHT22;32476;50.002;11.854;2024-02-15T09:10:16;8.20;99.90
46730;DHT22;32476;50.002;11.854;2024-02-15T09:12:44;8.30;99.90
46730;DHT22;32476;50.002;11.854;2024-02-15T09:15:14;8.30;99.90
46730;DHT22;32476;50.002;11.854;2024-02-15T09:17:41;8.40;99.90
46730;DHT22;32476;50.002;11.854;2024-02-15T09:20:10;8.50;99.90
46730;DHT22;32476;50.002;11.854;2024-02-15T09:22:51;8.60;99.90
46730;DHT22;32476;50.002;11.854;2024-02-15T09:25:21;8.60;99.90
46730;DHT22;32476;50.002;11.854;2024-02-15T09:27:52;8.70;99.90
46730;DHT22;32476;50.002;11.854;2024-02-15T09:30:19;8.70;99.90
46730;DHT22;32476;50.002;11.854;2024-02-15T09:32:46;8.70;99.90
46730;DHT22;32476;50.002;11.854;2024-02-15T09:35:13;8.70;99.90
46730;DHT22;32476;50.002;11.854;2024-02-15T09:37:45;8.80;99.90
46730;DHT22;32476;50.002;11.854;2024-02-15T09:40:13;8.80;99.90
46730;DHT22;32476;50.002;11.854;2024-02-15T09:42:42;8.80;99.90
46730;DHT22;32476;50.002;11.854;2024-02-15T09:45:12;8.80;99.90
46730;DHT22;32476;50.002;11.854;2024-02-15T09:47:42;8.80;99.90
46730;DHT22;32476;50.002;11.854;2024-02-15T09:50:09;8.90;99.90
46730;DHT22;32476;50.002;11.854;2024-02-15T09:52:43;8.80;99.90
46730;DHT22;32476;50.002;11.854;2024-02-15T09:55:12;8.90;99.90
46730;DHT22;32476;50.002;11.854;2024-02-15T09:57:45;8.80;99.90
46730;DHT22;32476;50.002;11.854;2024-02-15T10:00:16;8.90;99.90
46730;DHT22;32476;50.002;11.854;2024-02-15T10:02:44;8.90;99.90
46730;DHT22;32476;50.002;11.854;2024-02-15T10:05:12;9.10;99.90
46730;DHT22;32476;50.002;11.854;2024-02-15T10:07:44;9.20;99.90
46730;DHT22;32476;50.002;11.854;2024-02-15T10:10:24;9.30;99.90
46730;DHT22;32476;50.002;11.854;2024-02-15T10:12:53;9.40;99.90
46730;DHT22;32476;50.002;11.854;2024-02-15T10:15:37;9.50;99.90
46730;DHT22;32476;50.002;11.854;2024-02-15T10:18:07;9.60;99.90
46730;DHT22;32476;50.002;11.854;2024-02-15T10:20:34;9.60;99.90
46730;DHT22;32476;50.002;11.854;2024-02-15T10:25:36;9.70;99.90
46730;DHT22;32476;50.002;11.854;2024-02-15T10:28:10;10.00;99.90
46730;DHT22;32476;50.002;11.854;2024-02-15T10:30:43;10.30;99.90
46730;DHT22;32476;50.002;11.854;2024-02-15T10:33:26;10.30;99.90
46730;DHT22;32476;50.002;11.854;2024-02-15T10:36:10;10.20;99.90
46730;DHT22;32476;50.002;11.854;2024-02-15T10:38:39;10.30;99.90
46730;DHT22;32476;50.002;11.854;2024-02-15T10:41:07;10.10;99.90
46730;DHT22;32476;50.002;11.854;2024-02-15T10:43:37;10.10;99.90
46730;DHT22;32476;50.002;11.854;2024-02-15T10:46:05;10.10;99.90
46730;DHT22;32476;50.002;11.854;2024-02-15T10:48:37;10.10;99.90
46730;DHT22;32476;50.002;11.854;2024-02-15T10:51:09;10.10;99.90
46730;DHT22;32476;50.002;11.854;2024-02-15T10:53:39;10.00;99.90
46730;DHT22;32476;50.002;11.854;2024-02-15T10:56:18;9.90;99.90
46730;DHT22;32476;50.002;11.854;2024-02-15T10:58:50;9.80;99.90
46730;DHT22;32476;50.002;11.854;2024-02-15T11:01:22;9.80;99.90
46730;DHT22;32476;50.002;11.854;2024-02-15T11:03:52;9.90;99.90
46730;DHT22;32476;50.002;11.854;2024-02-15T11:06:34;10.00;99.90
46730;DHT22;32476;50.002;11.854;2024-02-15T11:09:02;10.10;99.90
46730;DHT22;32476;50.002;11.854;2024-02-15T11:11:32;10.00;99.90
46730;DHT22;32476;50.002;11.854;2024-02-15T11:14:29;10.10;99.90
46730;DHT22;32476;50.002;11.854;2024-02-15T11:16:59;10.20;99.90
46730;DHT22;32476;50.002;11.854;2024-02-15T11:22:12;10.40;99.90
46730;DHT22;32476;50.002;11.854;2024-02-15T11:24:51;10.40;99.90
46730;DHT22;32476;50.002;11.854;2024-02-15T11:27:26;10.50;99.90
46730;DHT22;32476;50.002;11.854;2024-02-15T11:29:58;10.40;99.90
46730;DHT22;32476;50.002;11.854;2024-02-15T11:32:48;10.50;99.90
46730;DHT22;32476;50.002;11.854;2024-02-15T11:35:20;10.60;99.90
46730;DHT22;32476;50.002;11.854;2024-02-15T11:43:10;10.70;99.90
46730;DHT22;32476;50.002;11.854;2024-02-15T11:45:36;10.80;99.90
46730;DHT22;32476;50.002;11.854;2024-02-15T11:48:11;10.80;99.90
46730;DHT22;32476;50.002;11.854;2024-02-15T11:50:38;10.70;99.90
46730;DHT22;32476;50.002;11.854;2024-02-15T11:53:08;10.60;99.90
46730;DHT22;32476;50.002;11.854;2024-02-15T11:55:40;10.60;99.90
46730;DHT22;32476;50.002;11.854;2024-02-15T11:58:08;10.70;99.90
46730;DHT22;32476;50.002;11.854;2024-02-15T12:00:35;10.90;99.90
46730;DHT22;32476;50.002;11.854;2024-02-15T12:03:22;11.00;99.90
46730;DHT22;32476;50.002;11.854;2024-02-15T12:06:08;11.20;99.90
46730;DHT22;32476;50.002;11.854;2024-02-15T12:08:55;11.00;99.90
46730;DHT22;32476;50.002;11.854;2024-02-15T12:11:40;10.90;99.90
46730;DHT22;32476;50.002;11.854;2024-02-15T12:14:26;10.90;99.90
46730;DHT22;32476;50.002;11.854;2024-02-15T12:17:12;11.10;99.90
46730;DHT22;32476;50.002;11.854;2024-02-15T12:20:03;10.80;99.90
46730;DHT22;32476;50.002;11.854;2024-02-15T12:22:48;10.60;99.90
46730;DHT22;32476;50.002;11.854;2024-02-15T12:25:17;10.60;99.90
46730;DHT22;32476;50.002;11.854;2024-02-15T12:27:53;10.80;99.90
46730;DHT22;32476;50.002;11.854;2024-02-15T12:30:21;10.90;99.90
46730;DHT22;32476;50.002;11.854;2024-02-15T12:32:49;11.00;99.90
46730;DHT22;32476;50.002;11.854;2024-02-15T12:35:22;11.00;99.90
46730;DHT22;32476;50.002;11.854;2024-02-15T12:40:38;11.60;99.90
46730;DHT22;32476;50.002;11.854;2024-02-15T12:43:08;11.40;99.90
46730;DHT22;32476;50.002;11.854;2024-02-15T12:45:39;11.70;99.90
46730;DHT22;32476;50.002;11.854;2024-02-15T12:48:08;11.90;99.90
46730;DHT22;32476;50.002;11.854;2024-02-15T12:50:36;11.70;99.90
46730;DHT22;32476;50.002;11.854;2024-02-15T12:53:03;11.50;99.90
46730;DHT22;32476;50.002;11.854;2024-02-15T12:55:34;11.30;99.90
46730;DHT22;32476;50.002;11.854;2024-02-15T12:58:05;11.10;99.90
46730;DHT22;32476;50.002;11.854;2024-02-15T13:00:42;11.10;99.90
46730;DHT22;32476;50.002;11.854;2024-02-15T13:03:09;11.20;99.90
46730;DHT22;32476;50.002;11.854;2024-02-15T13:05:40;11.40;99.90
46730;DHT22;32476;50.002;11.854;2024-02-15T13:08:08;11.60;99.90
46730;DHT22;32476;50.002;11.854;2024-02-15T13:10:38;11.70;99.90
46730;DHT22;32476;50.002;11.854;2024-02-15T13:13:05;11.70;99.90
46730;DHT22;32476;50.002;11.854;2024-02-15T13:15:33;11.60;99.90
46730;DHT22;32476;50.002;11.854;2024-02-15T13:18:00;11.40;99.90
46730;DHT22;32476;50.002;11.854;2024-02-15T13:20:26;11.30;99.90
46730;DHT22;32476;50.002;11.854;2024-02-15T13:23:00;11.30;99.90
46730;DHT22;32476;50.002;11.854;2024-02-15T13:25:51;11.30;99.90
46730;DHT22;32476;50.002;11.854;2024-02-15T13:28:19;11.30;99.90
46730;DHT22;32476;50.002;11.854;2024-02-15T13:30:45;11.30;99.90
46730;DHT22;32476;50.002;11.854;2024-02-15T13:33:12;11.40;99.90
46730;DHT22;32476;50.002;11.854;2024-02-15T13:35:40;11.30;99.90
46730;DHT22;32476;50.002;11.854;2024-02-15T13:38:06;11.30;99.90
46730;DHT22;32476;50.002;11.854;2024-02-15T13:40:41;11.30;99.90
46730;DHT22;32476;50.002;11.854;2024-02-15T13:43:07;11.20;99.90
46730;DHT22;32476;50.002;11.854;2024-02-15T13:45:41;11.30;99.90
46730;DHT22;32476;50.002;11.854;2024-02-15T13:48:09;11.30;99.90
46730;DHT22;32476;50.002;11.854;2024-02-15T13:50:39;11.40;99.90
46730;DHT22;32476;50.002;11.854;2024-02-15T13:53:05;11.40;99.90
46730;DHT22;32476;50.002;11.854;2024-02-15T13:55:33;11.40;99.90
46730;DHT22;32476;50.002;11.854;2024-02-15T13:58:01;11.40;99.90
46730;DHT22;32476;50.002;11.854;2024-02-15T14:00:27;11.30;99.90
46730;DHT22;32476;50.002;11.854;2024-02-15T14:03:01;11.20;99.90
46730;DHT22;32476;50.002;11.854;2024-02-15T14:05:30;11.20;99.90
46730;DHT22;32476;50.002;11.854;2024-02-15T14:07:57;11.10;99.90
46730;DHT22;32476;50.002;11.854;2024-02-15T14:10:29;11.20;99.90
46730;DHT22;32476;50.002;11.854;2024-02-15T14:12:56;11.10;99.90
46730;DHT22;32476;50.002;11.854;2024-02-15T14:15:32;11.20;99.90
46730;DHT22;32476;50.002;11.854;2024-02-15T14:18:10;11.30;99.90
46730;DHT22;32476;50.002;11.854;2024-02-15T14:20:40;11.30;99.90
46730;DHT22;32476;50.002;11.854;2024-02-15T14:23:08;11.30;99.90
46730;DHT22;32476;50.002;11.854;2024-02-15T14:25:41;11.30;99.90
46730;DHT22;32476;50.002;11.854;2024-02-15T14:28:07;11.20;99.90
46730;DHT22;32476;50.002;11.854;2024-02-15T14:30:34;11.20;99.90
46730;DHT22;32476;50.002;11.854;2024-02-15T14:33:21;11.00;99.90
46730;DHT22;32476;50.002;11.854;2024-02-15T14:35:49;11.00;99.90
46730;DHT22;32476;50.002;11.854;2024-02-15T14:38:16;10.90;99.90
46730;DHT22;32476;50.002;11.854;2024-02-15T14:40:47;10.90;99.90
46730;DHT22;32476;50.002;11.854;2024-02-15T14:43:25;10.80;99.90
46730;DHT22;32476;50.002;11.854;2024-02-15T14:45:55;10.80;99.90
46730;DHT22;32476;50.002;11.854;2024-02-15T14:48:21;10.70;99.90
46730;DHT22;32476;50.002;11.854;2024-02-15T14:50:49;10.70;99.90
46730;DHT22;32476;50.002;11.854;2024-02-15T14:53:17;10.60;99.90
46730;DHT22;32476;50.002;11.854;2024-02-15T14:55:44;10.50;99.90
46730;DHT22;32476;50.002;11.854;2024-02-15T14:58:12;10.50;99.90
46730;DHT22;32476;50.002;11.854;2024-02-15T15:00:40;10.40;99.90
46730;DHT22;32476;50.002;11.854;2024-02-15T15:03:10;10.40;99.90
46730;DHT22;32476;50.002;11.854;2024-02-15T15:05:42;10.30;99.90
46730;DHT22;32476;50.002;11.854;2024-02-15T15:08:37;10.30;99.90
46730;DHT22;32476;50.002;11.854;2024-02-15T15:11:23;10.20;99.90
46730;DHT22;32476;50.002;11.854;2024-02-15T15:14:08;10.20;99.90
46730;DHT22;32476;50.002;11.854;2024-02-15T15:16:35;10.20;99.90
46730;DHT22;32476;50.002;11.854;2024-02-15T15:19:01;10.20;99.90
46730;DHT22;32476;50.002;11.854;2024-02-15T15:21:28;10.10;99.90
46730;DHT22;32476;50.002;11.854;2024-02-15T15:23:56;10.10;99.90
46730;DHT22;32476;50.002;11.854;2024-02-15T15:26:22;10.10;99.90
46730;DHT22;32476;50.002;11.854;2024-02-15T15:28:48;10.00;99.90
46730;DHT22;32476;50.002;11.854;2024-02-15T15:31:17;10.00;99.90
46730;DHT22;32476;50.002;11.854;2024-02-15T15:33:46;10.00;99.90
46730;DHT22;32476;50.002;11.854;2024-02-15T15:36:16;10.00;99.90
46730;DHT22;32476;50.002;11.854;2024-02-15T15:38:43;10.00;99.90
46730;DHT22;32476;50.002;11.854;2024-02-15T15:41:09;10.00;99.90
46730;DHT22;32476;50.002;11.854;2024-02-15T15:43:36;9.90;99.90
46730;DHT22;32476;50.002;11.854;2024-02-15T15:46:03;9.90;99.90
46730;DHT22;32476;50.002;11.854;2024-02-15T15:48:29;9.90;99.90
46730;DHT22;32476;50.002;11.854;2024-02-15T15:50:57;10.00;99.90
46730;DHT22;32476;50.002;11.854;2024-02-15T15:53:25;10.00;99.90
46730;DHT22;32476;50.002;11.854;2024-02-15T15:55:51;9.90;99.90
46730;DHT22;32476;50.002;11.854;2024-02-15T15:58:19;9.90;99.90